Akra, North Dakota
Current Conditions -  °F | °C
As of 5:55 PM on Sunday 23 Nov 2014 (Local Time) from K2C8 Reporting Station
Haze Haze  
Wind Chill:   Ceiling: 1400
Heat Index: 18°   Visibility: 3mi
Dew Point: 16°   Wind: 22mph
Humidity: 93%   Direction: 340°NNW
Pressure: 29.58"   Gusts: 32mph
Location:  48.8218°N, 97.697°W
Report Text: K2C8 232355Z AUTO 34019G28KT 3SM BR SCT008 OVC014 M08/M09 A2958 RMK AO2 P0001
Loading
Personal Weather Stations






























Interactive Weather Map New forecast layout! Learn more

10-Day Weather Forecast

Advertisements
Track Severe Weather on mobile